Pribyslav, Czech Republic
Current Conditions -  °F | °C
As of 10:00 PM on Tuesday 25 Nov 2014 (Local Time) from LKCV Reporting Station
Overcast Overcast  
Wind Chill: 39°   Ceiling: 2800
Heat Index: 39°   Visibility: 6mi
Dew Point: 37°   Wind: 3mph
Humidity: 93%   Direction: 90°E
Pressure: 30.3"   Gusts: NA
Location:  49.58°N, 15.73°E
Report Text: LKCV 252000Z 09003KT 9999 OVC028 04/03 Q1026 NOSIG
Loading
Personal Weather Stations






























Interactive Weather Map New forecast layout! Learn more

10-Day Weather Forecast

Advertisements
Track Severe Weather on mobile